sensor_id;sensor_type;location;lat;lon;timestamp;P1;durP1;ratioP1;P2;durP2;ratioP2
36497;SDS011;22513;51.222;6.480;2022-07-21T00:00:01;16.85;;;8.23;;
36497;SDS011;22513;51.222;6.480;2022-07-21T00:02:32;11.65;;;7.63;;
36497;SDS011;22513;51.222;6.480;2022-07-21T00:04:58;9.48;;;7.28;;
36497;SDS011;22513;51.222;6.480;2022-07-21T00:07:24;8.52;;;6.80;;
36497;SDS011;22513;51.222;6.480;2022-07-21T00:09:49;11.57;;;7.13;;
36497;SDS011;22513;51.222;6.480;2022-07-21T00:12:15;18.85;;;12.38;;
36497;SDS011;22513;51.222;6.480;2022-07-21T00:14:40;11.57;;;8.75;;
36497;SDS011;22513;51.222;6.480;2022-07-21T00:17:06;9.77;;;8.00;;
36497;SDS011;22513;51.222;6.480;2022-07-21T00:19:32;8.85;;;7.85;;
36497;SDS011;22513;51.222;6.480;2022-07-21T00:21:58;8.52;;;7.47;;
36497;SDS011;22513;51.222;6.480;2022-07-21T00:24:24;8.55;;;7.60;;
36497;SDS011;22513;51.222;6.480;2022-07-21T00:26:49;12.45;;;7.60;;
36497;SDS011;22513;51.222;6.480;2022-07-21T00:29:15;8.73;;;7.50;;
36497;SDS011;22513;51.222;6.480;2022-07-21T00:31:40;9.20;;;7.60;;
36497;SDS011;22513;51.222;6.480;2022-07-21T00:34:06;8.52;;;7.63;;
36497;SDS011;22513;51.222;6.480;2022-07-21T00:36:32;7.68;;;6.88;;
36497;SDS011;22513;51.222;6.480;2022-07-21T00:38:57;9.40;;;7.78;;
36497;SDS011;22513;51.222;6.480;2022-07-21T00:41:23;10.25;;;8.05;;
36497;SDS011;22513;51.222;6.480;2022-07-21T00:43:49;8.80;;;7.40;;
36497;SDS011;22513;51.222;6.480;2022-07-21T00:46:14;10.20;;;7.82;;
36497;SDS011;22513;51.222;6.480;2022-07-21T00:48:40;10.82;;;7.75;;
36497;SDS011;22513;51.222;6.480;2022-07-21T00:51:06;10.00;;;8.23;;
36497;SDS011;22513;51.222;6.480;2022-07-21T00:53:31;20.77;;;9.32;;
36497;SDS011;22513;51.222;6.480;2022-07-21T00:55:58;10.82;;;8.60;;
36497;SDS011;22513;51.222;6.480;2022-07-21T00:58:25;11.15;;;8.23;;
36497;SDS011;22513;51.222;6.480;2022-07-21T01:00:50;9.82;;;8.55;;
36497;SDS011;22513;51.222;6.480;2022-07-21T01:03:16;11.57;;;8.95;;
36497;SDS011;22513;51.222;6.480;2022-07-21T01:05:42;9.18;;;8.00;;
36497;SDS011;22513;51.222;6.480;2022-07-21T01:08:07;9.23;;;8.02;;
36497;SDS011;22513;51.222;6.480;2022-07-21T01:10:33;11.18;;;8.15;;
36497;SDS011;22513;51.222;6.480;2022-07-21T01:13:00;10.02;;;8.00;;
36497;SDS011;22513;51.222;6.480;2022-07-21T01:15:26;7.93;;;7.13;;
36497;SDS011;22513;51.222;6.480;2022-07-21T01:17:52;11.65;;;9.02;;
36497;SDS011;22513;51.222;6.480;2022-07-21T01:20:18;11.10;;;8.77;;
36497;SDS011;22513;51.222;6.480;2022-07-21T01:22:47;9.50;;;8.50;;
36497;SDS011;22513;51.222;6.480;2022-07-21T01:25:14;9.32;;;8.32;;
36497;SDS011;22513;51.222;6.480;2022-07-21T01:27:41;10.63;;;8.40;;
36497;SDS011;22513;51.222;6.480;2022-07-21T01:30:07;9.93;;;8.27;;
36497;SDS011;22513;51.222;6.480;2022-07-21T01:32:34;11.57;;;8.25;;
36497;SDS011;22513;51.222;6.480;2022-07-21T01:35:04;10.57;;;8.75;;
36497;SDS011;22513;51.222;6.480;2022-07-21T01:37:34;10.48;;;7.90;;
36497;SDS011;22513;51.222;6.480;2022-07-21T01:40:02;9.13;;;7.75;;
36497;SDS011;22513;51.222;6.480;2022-07-21T01:42:45;9.20;;;7.53;;
36497;SDS011;22513;51.222;6.480;2022-07-21T01:45:11;8.30;;;7.10;;
36497;SDS011;22513;51.222;6.480;2022-07-21T01:47:37;8.95;;;7.35;;
36497;SDS011;22513;51.222;6.480;2022-07-21T01:50:02;9.20;;;7.78;;
36497;SDS011;22513;51.222;6.480;2022-07-21T01:52:28;10.50;;;9.38;;
36497;SDS011;22513;51.222;6.480;2022-07-21T01:54:54;10.98;;;9.25;;
36497;SDS011;22513;51.222;6.480;2022-07-21T01:57:20;13.38;;;9.68;;
36497;SDS011;22513;51.222;6.480;2022-07-21T01:59:45;11.75;;;9.50;;
36497;SDS011;22513;51.222;6.480;2022-07-21T02:02:12;10.60;;;9.32;;
36497;SDS011;22513;51.222;6.480;2022-07-21T02:04:37;11.18;;;9.77;;
36497;SDS011;22513;51.222;6.480;2022-07-21T02:07:03;13.10;;;9.43;;
36497;SDS011;22513;51.222;6.480;2022-07-21T02:09:29;10.75;;;8.65;;
36497;SDS011;22513;51.222;6.480;2022-07-21T02:14:24;11.57;;;9.20;;
36497;SDS011;22513;51.222;6.480;2022-07-21T02:16:49;12.30;;;8.73;;
36497;SDS011;22513;51.222;6.480;2022-07-21T02:19:15;12.70;;;9.00;;
36497;SDS011;22513;51.222;6.480;2022-07-21T02:21:41;12.10;;;9.15;;
36497;SDS011;22513;51.222;6.480;2022-07-21T02:24:06;13.00;;;8.90;;
36497;SDS011;22513;51.222;6.480;2022-07-21T02:26:32;10.52;;;9.30;;
36497;SDS011;22513;51.222;6.480;2022-07-21T02:28:58;11.73;;;9.95;;
36497;SDS011;22513;51.222;6.480;2022-07-21T02:31:24;13.30;;;9.40;;
36497;SDS011;22513;51.222;6.480;2022-07-21T02:33:49;11.45;;;9.93;;
36497;SDS011;22513;51.222;6.480;2022-07-21T02:36:15;10.30;;;9.23;;
36497;SDS011;22513;51.222;6.480;2022-07-21T02:38:40;12.52;;;9.98;;
36497;SDS011;22513;51.222;6.480;2022-07-21T02:41:06;11.65;;;10.23;;
36497;SDS011;22513;51.222;6.480;2022-07-21T02:43:32;12.18;;;10.18;;
36497;SDS011;22513;51.222;6.480;2022-07-21T02:45:57;12.90;;;10.85;;
36497;SDS011;22513;51.222;6.480;2022-07-21T02:48:23;13.68;;;11.30;;
36497;SDS011;22513;51.222;6.480;2022-07-21T02:50:48;16.05;;;12.02;;
36497;SDS011;22513;51.222;6.480;2022-07-21T02:53:15;15.80;;;12.13;;
36497;SDS011;22513;51.222;6.480;2022-07-21T02:55:45;15.88;;;12.20;;
36497;SDS011;22513;51.222;6.480;2022-07-21T02:58:13;18.65;;;12.73;;
36497;SDS011;22513;51.222;6.480;2022-07-21T03:00:42;17.60;;;12.40;;
36497;SDS011;22513;51.222;6.480;2022-07-21T03:03:31;17.70;;;12.75;;
36497;SDS011;22513;51.222;6.480;2022-07-21T03:05:58;15.95;;;12.55;;
36497;SDS011;22513;51.222;6.480;2022-07-21T03:08:24;17.08;;;11.43;;
36497;SDS011;22513;51.222;6.480;2022-07-21T03:10:51;15.30;;;12.18;;
36497;SDS011;22513;51.222;6.480;2022-07-21T03:13:17;16.83;;;12.85;;
36497;SDS011;22513;51.222;6.480;2022-07-21T03:15:43;15.43;;;12.98;;
36497;SDS011;22513;51.222;6.480;2022-07-21T03:18:09;16.23;;;13.20;;
36497;SDS011;22513;51.222;6.480;2022-07-21T03:20:35;19.65;;;13.88;;
36497;SDS011;22513;51.222;6.480;2022-07-21T03:23:03;17.75;;;14.05;;
36497;SDS011;22513;51.222;6.480;2022-07-21T03:25:29;18.98;;;13.73;;
36497;SDS011;22513;51.222;6.480;2022-07-21T03:27:56;17.38;;;13.77;;
36497;SDS011;22513;51.222;6.480;2022-07-21T03:30:22;18.30;;;14.55;;
36497;SDS011;22513;51.222;6.480;2022-07-21T03:32:48;16.45;;;13.82;;
36497;SDS011;22513;51.222;6.480;2022-07-21T03:35:15;19.45;;;14.68;;
36497;SDS011;22513;51.222;6.480;2022-07-21T03:37:44;17.55;;;14.30;;
36497;SDS011;22513;51.222;6.480;2022-07-21T03:40:22;17.45;;;14.50;;
36497;SDS011;22513;51.222;6.480;2022-07-21T03:42:53;20.33;;;15.35;;
36497;SDS011;22513;51.222;6.480;2022-07-21T03:45:20;20.23;;;15.07;;
36497;SDS011;22513;51.222;6.480;2022-07-21T03:47:46;19.00;;;13.82;;
36497;SDS011;22513;51.222;6.480;2022-07-21T03:50:12;17.42;;;13.85;;
36497;SDS011;22513;51.222;6.480;2022-07-21T03:52:39;17.05;;;13.95;;
36497;SDS011;22513;51.222;6.480;2022-07-21T03:55:05;19.00;;;14.57;;
36497;SDS011;22513;51.222;6.480;2022-07-21T03:57:37;17.90;;;13.98;;
36497;SDS011;22513;51.222;6.480;2022-07-21T04:00:05;16.52;;;14.07;;
36497;SDS011;22513;51.222;6.480;2022-07-21T04:02:34;19.98;;;14.23;;
36497;SDS011;22513;51.222;6.480;2022-07-21T04:05:00;16.77;;;13.85;;
36497;SDS011;22513;51.222;6.480;2022-07-21T04:07:26;19.08;;;14.73;;
36497;SDS011;22513;51.222;6.480;2022-07-21T04:09:52;18.27;;;13.80;;
36497;SDS011;22513;51.222;6.480;2022-07-21T04:12:18;16.55;;;13.82;;
36497;SDS011;22513;51.222;6.480;2022-07-21T04:14:43;17.52;;;13.98;;
36497;SDS011;22513;51.222;6.480;2022-07-21T04:17:09;17.35;;;14.02;;
36497;SDS011;22513;51.222;6.480;2022-07-21T04:19:35;16.60;;;12.98;;
36497;SDS011;22513;51.222;6.480;2022-07-21T04:22:03;19.33;;;12.85;;
36497;SDS011;22513;51.222;6.480;2022-07-21T04:24:29;16.58;;;13.10;;
36497;SDS011;22513;51.222;6.480;2022-07-21T04:26:54;15.10;;;12.73;;
36497;SDS011;22513;51.222;6.480;2022-07-21T04:29:20;17.42;;;12.18;;
36497;SDS011;22513;51.222;6.480;2022-07-21T04:31:45;15.07;;;11.60;;
36497;SDS011;22513;51.222;6.480;2022-07-21T04:34:11;16.60;;;12.95;;
36497;SDS011;22513;51.222;6.480;2022-07-21T04:36:37;14.95;;;12.38;;
36497;SDS011;22513;51.222;6.480;2022-07-21T04:39:02;16.38;;;11.82;;
36497;SDS011;22513;51.222;6.480;2022-07-21T04:41:28;15.25;;;11.63;;
36497;SDS011;22513;51.222;6.480;2022-07-21T04:43:53;17.00;;;12.30;;
36497;SDS011;22513;51.222;6.480;2022-07-21T04:46:19;13.70;;;10.95;;
36497;SDS011;22513;51.222;6.480;2022-07-21T04:48:45;21.38;;;12.13;;
36497;SDS011;22513;51.222;6.480;2022-07-21T04:51:10;15.15;;;11.63;;
36497;SDS011;22513;51.222;6.480;2022-07-21T04:53:36;12.82;;;11.40;;
36497;SDS011;22513;51.222;6.480;2022-07-21T04:56:01;14.52;;;11.52;;
36497;SDS011;22513;51.222;6.480;2022-07-21T04:58:27;13.35;;;10.57;;
36497;SDS011;22513;51.222;6.480;2022-07-21T05:00:53;15.23;;;11.57;;
36497;SDS011;22513;51.222;6.480;2022-07-21T05:03:19;15.80;;;10.90;;
36497;SDS011;22513;51.222;6.480;2022-07-21T05:05:44;16.45;;;10.63;;
36497;SDS011;22513;51.222;6.480;2022-07-21T05:08:10;14.05;;;11.35;;
36497;SDS011;22513;51.222;6.480;2022-07-21T05:10:35;14.38;;;11.43;;
36497;SDS011;22513;51.222;6.480;2022-07-21T05:13:01;13.93;;;10.70;;
36497;SDS011;22513;51.222;6.480;2022-07-21T05:15:27;13.70;;;11.55;;
36497;SDS011;22513;51.222;6.480;2022-07-21T05:17:52;13.13;;;10.00;;
36497;SDS011;22513;51.222;6.480;2022-07-21T05:20:18;13.60;;;10.30;;
36497;SDS011;22513;51.222;6.480;2022-07-21T05:22:44;15.48;;;10.45;;
36497;SDS011;22513;51.222;6.480;2022-07-21T05:25:09;11.50;;;9.75;;
36497;SDS011;22513;51.222;6.480;2022-07-21T05:27:35;13.10;;;10.68;;
36497;SDS011;22513;51.222;6.480;2022-07-21T05:30:01;11.75;;;10.20;;
36497;SDS011;22513;51.222;6.480;2022-07-21T05:32:27;12.02;;;9.88;;
36497;SDS011;22513;51.222;6.480;2022-07-21T05:34:53;13.88;;;10.18;;
36497;SDS011;22513;51.222;6.480;2022-07-21T05:37:19;11.15;;;9.95;;
36497;SDS011;22513;51.222;6.480;2022-07-21T05:39:44;13.90;;;11.18;;
36497;SDS011;22513;51.222;6.480;2022-07-21T05:42:10;12.57;;;9.25;;
36497;SDS011;22513;51.222;6.480;2022-07-21T05:44:36;14.75;;;10.05;;
36497;SDS011;22513;51.222;6.480;2022-07-21T05:47:01;12.13;;;9.07;;
36497;SDS011;22513;51.222;6.480;2022-07-21T05:49:27;12.63;;;8.95;;
36497;SDS011;22513;51.222;6.480;2022-07-21T05:51:53;11.98;;;9.52;;
36497;SDS011;22513;51.222;6.480;2022-07-21T05:54:18;14.50;;;9.15;;
36497;SDS011;22513;51.222;6.480;2022-07-21T05:56:44;10.88;;;8.80;;
36497;SDS011;22513;51.222;6.480;2022-07-21T05:59:09;11.77;;;9.32;;
36497;SDS011;22513;51.222;6.480;2022-07-21T06:01:35;10.30;;;8.70;;
36497;SDS011;22513;51.222;6.480;2022-07-21T06:04:01;13.07;;;8.23;;
36497;SDS011;22513;51.222;6.480;2022-07-21T06:06:26;12.63;;;8.55;;
36497;SDS011;22513;51.222;6.480;2022-07-21T06:08:53;9.80;;;7.85;;
36497;SDS011;22513;51.222;6.480;2022-07-21T06:11:20;10.05;;;7.93;;
36497;SDS011;22513;51.222;6.480;2022-07-21T06:13:46;9.93;;;7.53;;
36497;SDS011;22513;51.222;6.480;2022-07-21T06:16:12;10.43;;;6.80;;
36497;SDS011;22513;51.222;6.480;2022-07-21T06:18:37;10.27;;;6.80;;
36497;SDS011;22513;51.222;6.480;2022-07-21T06:21:03;8.60;;;6.72;;
36497;SDS011;22513;51.222;6.480;2022-07-21T06:23:29;7.40;;;5.80;;
36497;SDS011;22513;51.222;6.480;2022-07-21T06:25:55;8.85;;;5.95;;
36497;SDS011;22513;51.222;6.480;2022-07-21T06:28:21;6.35;;;4.97;;
36497;SDS011;22513;51.222;6.480;2022-07-21T06:30:47;10.05;;;5.75;;
36497;SDS011;22513;51.222;6.480;2022-07-21T06:33:13;6.57;;;5.30;;
36497;SDS011;22513;51.222;6.480;2022-07-21T06:35:39;9.77;;;5.63;;
36497;SDS011;22513;51.222;6.480;2022-07-21T06:38:05;8.07;;;5.32;;
36497;SDS011;22513;51.222;6.480;2022-07-21T06:40:31;7.03;;;5.00;;
36497;SDS011;22513;51.222;6.480;2022-07-21T06:42:57;8.18;;;4.65;;
36497;SDS011;22513;51.222;6.480;2022-07-21T06:45:23;6.88;;;4.68;;
36497;SDS011;22513;51.222;6.480;2022-07-21T06:47:49;8.70;;;4.80;;
36497;SDS011;22513;51.222;6.480;2022-07-21T06:50:15;5.40;;;4.60;;
36497;SDS011;22513;51.222;6.480;2022-07-21T06:52:41;6.18;;;4.35;;
36497;SDS011;22513;51.222;6.480;2022-07-21T06:55:07;5.72;;;3.88;;
36497;SDS011;22513;51.222;6.480;2022-07-21T06:57:34;8.60;;;4.57;;
36497;SDS011;22513;51.222;6.480;2022-07-21T07:00:00;6.75;;;4.57;;
36497;SDS011;22513;51.222;6.480;2022-07-21T07:02:30;6.50;;;4.80;;
36497;SDS011;22513;51.222;6.480;2022-07-21T07:04:55;8.70;;;4.13;;
36497;SDS011;22513;51.222;6.480;2022-07-21T07:07:21;6.85;;;4.85;;
36497;SDS011;22513;51.222;6.480;2022-07-21T07:09:47;7.03;;;4.78;;
36497;SDS011;22513;51.222;6.480;2022-07-21T07:12:12;6.28;;;4.30;;
36497;SDS011;22513;51.222;6.480;2022-07-21T07:14:38;6.60;;;4.03;;
36497;SDS011;22513;51.222;6.480;2022-07-21T07:17:04;7.80;;;4.60;;
36497;SDS011;22513;51.222;6.480;2022-07-21T07:19:30;7.25;;;3.70;;
36497;SDS011;22513;51.222;6.480;2022-07-21T07:21:56;9.77;;;3.58;;
36497;SDS011;22513;51.222;6.480;2022-07-21T07:24:22;6.30;;;3.80;;
36497;SDS011;22513;51.222;6.480;2022-07-21T07:26:47;6.32;;;4.25;;
36497;SDS011;22513;51.222;6.480;2022-07-21T07:29:13;7.70;;;4.32;;
36497;SDS011;22513;51.222;6.480;2022-07-21T07:31:39;8.10;;;4.05;;
36497;SDS011;22513;51.222;6.480;2022-07-21T07:34:05;6.93;;;3.80;;
36497;SDS011;22513;51.222;6.480;2022-07-21T07:36:31;5.38;;;3.63;;
36497;SDS011;22513;51.222;6.480;2022-07-21T07:38:58;5.70;;;3.78;;
36497;SDS011;22513;51.222;6.480;2022-07-21T07:41:25;5.82;;;3.92;;
36497;SDS011;22513;51.222;6.480;2022-07-21T07:43:51;6.55;;;4.60;;
36497;SDS011;22513;51.222;6.480;2022-07-21T07:46:17;6.85;;;4.22;;
36497;SDS011;22513;51.222;6.480;2022-07-21T07:48:44;7.20;;;5.13;;
36497;SDS011;22513;51.222;6.480;2022-07-21T07:51:10;6.45;;;4.47;;
36497;SDS011;22513;51.222;6.480;2022-07-21T07:53:37;7.95;;;4.90;;
36497;SDS011;22513;51.222;6.480;2022-07-21T07:56:03;7.53;;;4.68;;
36497;SDS011;22513;51.222;6.480;2022-07-21T07:58:29;7.82;;;5.15;;
36497;SDS011;22513;51.222;6.480;2022-07-21T08:00:55;10.80;;;5.85;;
36497;SDS011;22513;51.222;6.480;2022-07-21T08:03:21;8.05;;;5.88;;
36497;SDS011;22513;51.222;6.480;2022-07-21T08:05:47;7.72;;;6.05;;
36497;SDS011;22513;51.222;6.480;2022-07-21T08:08:13;10.85;;;5.78;;
36497;SDS011;22513;51.222;6.480;2022-07-21T08:10:39;7.30;;;5.53;;
36497;SDS011;22513;51.222;6.480;2022-07-21T08:13:05;9.93;;;6.45;;
36497;SDS011;22513;51.222;6.480;2022-07-21T08:15:34;6.53;;;5.82;;
36497;SDS011;22513;51.222;6.480;2022-07-21T08:17:59;10.57;;;5.22;;
36497;SDS011;22513;51.222;6.480;2022-07-21T08:20:28;6.90;;;4.65;;
36497;SDS011;22513;51.222;6.480;2022-07-21T08:22:54;7.40;;;4.55;;
36497;SDS011;22513;51.222;6.480;2022-07-21T08:25:19;7.85;;;4.35;;
36497;SDS011;22513;51.222;6.480;2022-07-21T08:27:45;7.88;;;4.63;;
36497;SDS011;22513;51.222;6.480;2022-07-21T08:30:11;7.22;;;4.97;;
36497;SDS011;22513;51.222;6.480;2022-07-21T08:32:37;6.50;;;4.65;;
36497;SDS011;22513;51.222;6.480;2022-07-21T08:35:03;7.25;;;4.53;;
36497;SDS011;22513;51.222;6.480;2022-07-21T08:37:33;8.05;;;5.05;;
36497;SDS011;22513;51.222;6.480;2022-07-21T08:40:05;6.13;;;4.05;;
36497;SDS011;22513;51.222;6.480;2022-07-21T08:42:33;11.05;;;4.47;;
36497;SDS011;22513;51.222;6.480;2022-07-21T08:44:59;9.75;;;4.40;;
36497;SDS011;22513;51.222;6.480;2022-07-21T08:47:25;6.78;;;4.72;;
36497;SDS011;22513;51.222;6.480;2022-07-21T08:49:53;7.43;;;4.68;;
36497;SDS011;22513;51.222;6.480;2022-07-21T08:52:19;5.38;;;3.92;;
36497;SDS011;22513;51.222;6.480;2022-07-21T08:54:45;5.65;;;4.03;;
36497;SDS011;22513;51.222;6.480;2022-07-21T08:57:11;5.55;;;3.75;;
36497;SDS011;22513;51.222;6.480;2022-07-21T08:59:37;7.28;;;4.03;;
36497;SDS011;22513;51.222;6.480;2022-07-21T09:02:03;6.47;;;4.25;;
36497;SDS011;22513;51.222;6.480;2022-07-21T09:04:33;6.13;;;4.18;;
36497;SDS011;22513;51.222;6.480;2022-07-21T09:09:31;9.73;;;5.07;;
36497;SDS011;22513;51.222;6.480;2022-07-21T09:11:58;8.95;;;4.35;;
36497;SDS011;22513;51.222;6.480;2022-07-21T09:14:26;8.20;;;4.88;;
36497;SDS011;22513;51.222;6.480;2022-07-21T09:16:55;10.55;;;5.53;;
36497;SDS011;22513;51.222;6.480;2022-07-21T09:19:26;6.70;;;5.10;;
36497;SDS011;22513;51.222;6.480;2022-07-21T09:21:57;16.50;;;5.55;;
36497;SDS011;22513;51.222;6.480;2022-07-21T09:27:05;15.23;;;7.38;;
36497;SDS011;22513;51.222;6.480;2022-07-21T09:29:39;12.80;;;6.25;;
36497;SDS011;22513;51.222;6.480;2022-07-21T09:32:15;16.55;;;8.02;;
36497;SDS011;22513;51.222;6.480;2022-07-21T09:34:41;8.80;;;5.28;;
36497;SDS011;22513;51.222;6.480;2022-07-21T09:37:07;8.73;;;5.65;;
36497;SDS011;22513;51.222;6.480;2022-07-21T09:39:46;8.88;;;5.40;;
36497;SDS011;22513;51.222;6.480;2022-07-21T09:42:24;9.65;;;6.15;;
36497;SDS011;22513;51.222;6.480;2022-07-21T09:47:22;11.25;;;6.93;;
36497;SDS011;22513;51.222;6.480;2022-07-21T09:49:49;10.93;;;6.50;;
36497;SDS011;22513;51.222;6.480;2022-07-21T09:52:26;9.48;;;6.50;;
36497;SDS011;22513;51.222;6.480;2022-07-21T09:55:00;11.27;;;6.88;;
36497;SDS011;22513;51.222;6.480;2022-07-21T09:57:28;11.07;;;8.00;;
36497;SDS011;22513;51.222;6.480;2022-07-21T09:59:55;11.63;;;6.63;;
36497;SDS011;22513;51.222;6.480;2022-07-21T10:02:22;12.20;;;7.63;;
36497;SDS011;22513;51.222;6.480;2022-07-21T10:04:59;14.77;;;8.70;;
36497;SDS011;22513;51.222;6.480;2022-07-21T10:07:25;11.52;;;8.18;;
36497;SDS011;22513;51.222;6.480;2022-07-21T10:09:52;12.85;;;9.02;;
36497;SDS011;22513;51.222;6.480;2022-07-21T10:12:18;10.57;;;8.07;;
36497;SDS011;22513;51.222;6.480;2022-07-21T10:14:44;12.00;;;8.00;;
36497;SDS011;22513;51.222;6.480;2022-07-21T10:17:11;11.55;;;8.40;;
36497;SDS011;22513;51.222;6.480;2022-07-21T10:19:46;10.00;;;7.07;;
36497;SDS011;22513;51.222;6.480;2022-07-21T10:22:47;11.27;;;6.70;;
36497;SDS011;22513;51.222;6.480;2022-07-21T10:25:21;8.07;;;6.60;;
36497;SDS011;22513;51.222;6.480;2022-07-21T10:30:53;8.35;;;6.35;;
36497;SDS011;22513;51.222;6.480;2022-07-21T10:33:21;9.40;;;6.93;;
36497;SDS011;22513;51.222;6.480;2022-07-21T10:36:05;8.82;;;6.38;;
36497;SDS011;22513;51.222;6.480;2022-07-21T10:38:32;8.63;;;7.18;;
36497;SDS011;22513;51.222;6.480;2022-07-21T10:41:01;10.20;;;7.43;;
36497;SDS011;22513;51.222;6.480;2022-07-21T10:45:54;8.27;;;6.75;;
36497;SDS011;22513;51.222;6.480;2022-07-21T10:51:12;9.25;;;7.65;;
36497;SDS011;22513;51.222;6.480;2022-07-21T10:53:39;13.70;;;9.07;;
36497;SDS011;22513;51.222;6.480;2022-07-21T10:56:06;10.77;;;8.65;;
36497;SDS011;22513;51.222;6.480;2022-07-21T10:58:41;11.57;;;8.55;;
36497;SDS011;22513;51.222;6.480;2022-07-21T11:03:44;11.68;;;8.15;;
36497;SDS011;22513;51.222;6.480;2022-07-21T11:06:25;12.35;;;9.82;;
36497;SDS011;22513;51.222;6.480;2022-07-21T11:11:40;12.95;;;9.90;;
36497;SDS011;22513;51.222;6.480;2022-07-21T11:14:13;12.68;;;9.45;;
36497;SDS011;22513;51.222;6.480;2022-07-21T11:21:59;12.48;;;9.75;;
36497;SDS011;22513;51.222;6.480;2022-07-21T11:24:35;11.30;;;8.77;;
36497;SDS011;22513;51.222;6.480;2022-07-21T11:29:27;11.02;;;7.32;;
36497;SDS011;22513;51.222;6.480;2022-07-21T11:31:54;9.88;;;7.88;;
36497;SDS011;22513;51.222;6.480;2022-07-21T11:34:23;10.37;;;7.53;;
36497;SDS011;22513;51.222;6.480;2022-07-21T11:36:59;9.75;;;7.53;;
36497;SDS011;22513;51.222;6.480;2022-07-21T11:39:29;10.70;;;7.28;;
36497;SDS011;22513;51.222;6.480;2022-07-21T11:42:00;9.13;;;7.30;;
36497;SDS011;22513;51.222;6.480;2022-07-21T11:44:27;7.85;;;6.70;;
36497;SDS011;22513;51.222;6.480;2022-07-21T11:46:57;7.25;;;6.50;;
36497;SDS011;22513;51.222;6.480;2022-07-21T11:49:25;9.07;;;6.28;;
36497;SDS011;22513;51.222;6.480;2022-07-21T11:51:52;7.45;;;5.90;;
36497;SDS011;22513;51.222;6.480;2022-07-21T11:54:30;9.50;;;6.88;;
36497;SDS011;22513;51.222;6.480;2022-07-21T11:56:56;6.63;;;5.80;;
36497;SDS011;22513;51.222;6.480;2022-07-21T11:59:23;8.65;;;5.82;;
36497;SDS011;22513;51.222;6.480;2022-07-21T12:04:34;7.75;;;5.40;;
36497;SDS011;22513;51.222;6.480;2022-07-21T12:07:00;5.22;;;3.88;;
36497;SDS011;22513;51.222;6.480;2022-07-21T12:09:27;4.88;;;3.47;;
36497;SDS011;22513;51.222;6.480;2022-07-21T12:11:53;4.22;;;3.55;;
36497;SDS011;22513;51.222;6.480;2022-07-21T12:14:18;3.90;;;3.50;;
36497;SDS011;22513;51.222;6.480;2022-07-21T12:16:51;3.50;;;3.20;;
36497;SDS011;22513;51.222;6.480;2022-07-21T12:19:18;5.13;;;3.70;;
36497;SDS011;22513;51.222;6.480;2022-07-21T12:21:49;5.68;;;3.42;;
36497;SDS011;22513;51.222;6.480;2022-07-21T12:24:20;4.03;;;3.42;;
36497;SDS011;22513;51.222;6.480;2022-07-21T12:26:48;3.65;;;3.08;;
36497;SDS011;22513;51.222;6.480;2022-07-21T12:29:24;3.65;;;3.33;;
36497;SDS011;22513;51.222;6.480;2022-07-21T12:34:19;3.88;;;3.17;;
36497;SDS011;22513;51.222;6.480;2022-07-21T12:36:46;4.82;;;3.67;;
36497;SDS011;22513;51.222;6.480;2022-07-21T12:39:20;4.55;;;3.67;;
36497;SDS011;22513;51.222;6.480;2022-07-21T12:42:07;5.78;;;4.30;;
36497;SDS011;22513;51.222;6.480;2022-07-21T12:44:34;6.20;;;4.35;;
36497;SDS011;22513;51.222;6.480;2022-07-21T12:47:14;5.13;;;4.28;;
36497;SDS011;22513;51.222;6.480;2022-07-21T12:50:00;6.78;;;4.82;;
36497;SDS011;22513;51.222;6.480;2022-07-21T12:52:28;8.23;;;5.20;;
36497;SDS011;22513;51.222;6.480;2022-07-21T12:54:55;7.20;;;5.22;;
36497;SDS011;22513;51.222;6.480;2022-07-21T12:57:31;7.35;;;5.93;;
36497;SDS011;22513;51.222;6.480;2022-07-21T12:59:58;10.77;;;7.65;;
36497;SDS011;22513;51.222;6.480;2022-07-21T13:02:24;13.02;;;8.18;;
36497;SDS011;22513;51.222;6.480;2022-07-21T13:04:51;7.93;;;6.60;;
36497;SDS011;22513;51.222;6.480;2022-07-21T13:07:17;12.70;;;8.82;;
36497;SDS011;22513;51.222;6.480;2022-07-21T13:09:43;10.32;;;8.88;;
36497;SDS011;22513;51.222;6.480;2022-07-21T13:12:12;14.15;;;11.45;;
36497;SDS011;22513;51.222;6.480;2022-07-21T13:14:38;15.00;;;11.73;;
36497;SDS011;22513;51.222;6.480;2022-07-21T13:17:05;16.10;;;13.68;;
36497;SDS011;22513;51.222;6.480;2022-07-21T13:19:31;16.08;;;13.93;;
36497;SDS011;22513;51.222;6.480;2022-07-21T13:21:57;16.63;;;13.88;;
36497;SDS011;22513;51.222;6.480;2022-07-21T13:24:22;21.15;;;14.48;;
36497;SDS011;22513;51.222;6.480;2022-07-21T13:26:48;17.13;;;13.48;;
36497;SDS011;22513;51.222;6.480;2022-07-21T13:29:13;15.20;;;12.68;;
36497;SDS011;22513;51.222;6.480;2022-07-21T13:31:39;15.13;;;12.30;;
36497;SDS011;22513;51.222;6.480;2022-07-21T13:34:05;13.80;;;12.32;;
36497;SDS011;22513;51.222;6.480;2022-07-21T13:36:34;14.90;;;11.88;;
36497;SDS011;22513;51.222;6.480;2022-07-21T13:39:01;13.88;;;12.35;;
36497;SDS011;22513;51.222;6.480;2022-07-21T13:41:32;17.58;;;13.15;;
36497;SDS011;22513;51.222;6.480;2022-07-21T13:46:24;16.38;;;13.77;;
36497;SDS011;22513;51.222;6.480;2022-07-21T13:48:50;19.00;;;13.88;;
36497;SDS011;22513;51.222;6.480;2022-07-21T13:51:17;16.17;;;13.45;;
36497;SDS011;22513;51.222;6.480;2022-07-21T13:53:44;17.20;;;14.07;;
36497;SDS011;22513;51.222;6.480;2022-07-21T13:56:11;17.95;;;12.82;;
36497;SDS011;22513;51.222;6.480;2022-07-21T13:58:38;14.85;;;12.65;;
36497;SDS011;22513;51.222;6.480;2022-07-21T14:01:05;12.90;;;9.70;;
36497;SDS011;22513;51.222;6.480;2022-07-21T14:03:32;11.43;;;10.23;;
36497;SDS011;22513;51.222;6.480;2022-07-21T14:05:59;13.02;;;9.07;;
36497;SDS011;22513;51.222;6.480;2022-07-21T14:08:25;11.57;;;7.57;;
36497;SDS011;22513;51.222;6.480;2022-07-21T14:10:51;9.25;;;8.35;;
36497;SDS011;22513;51.222;6.480;2022-07-21T14:13:16;9.27;;;7.97;;
36497;SDS011;22513;51.222;6.480;2022-07-21T14:15:42;7.10;;;6.40;;
36497;SDS011;22513;51.222;6.480;2022-07-21T14:18:08;8.70;;;5.57;;
36497;SDS011;22513;51.222;6.480;2022-07-21T14:20:33;5.93;;;5.32;;
36497;SDS011;22513;51.222;6.480;2022-07-21T14:22:59;7.82;;;6.03;;
36497;SDS011;22513;51.222;6.480;2022-07-21T14:25:25;6.00;;;5.05;;
36497;SDS011;22513;51.222;6.480;2022-07-21T14:27:52;6.60;;;5.40;;
36497;SDS011;22513;51.222;6.480;2022-07-21T14:30:19;9.18;;;5.55;;
36497;SDS011;22513;51.222;6.480;2022-07-21T14:32:46;13.63;;;6.15;;
36497;SDS011;22513;51.222;6.480;2022-07-21T14:35:13;7.65;;;5.63;;
36497;SDS011;22513;51.222;6.480;2022-07-21T14:37:43;6.25;;;5.65;;
36497;SDS011;22513;51.222;6.480;2022-07-21T14:40:11;7.75;;;5.95;;
36497;SDS011;22513;51.222;6.480;2022-07-21T14:42:38;7.25;;;6.55;;
36497;SDS011;22513;51.222;6.480;2022-07-21T14:45:04;8.52;;;6.78;;
36497;SDS011;22513;51.222;6.480;2022-07-21T14:47:31;9.18;;;7.45;;
36497;SDS011;22513;51.222;6.480;2022-07-21T14:49:57;7.50;;;6.38;;
36497;SDS011;22513;51.222;6.480;2022-07-21T14:52:23;7.00;;;5.90;;
36497;SDS011;22513;51.222;6.480;2022-07-21T14:54:48;6.30;;;5.20;;
36497;SDS011;22513;51.222;6.480;2022-07-21T14:57:14;6.35;;;4.35;;
36497;SDS011;22513;51.222;6.480;2022-07-21T14:59:39;5.85;;;3.53;;
36497;SDS011;22513;51.222;6.480;2022-07-21T15:02:05;4.50;;;4.10;;
36497;SDS011;22513;51.222;6.480;2022-07-21T15:04:31;4.43;;;3.67;;
36497;SDS011;22513;51.222;6.480;2022-07-21T15:06:57;4.20;;;3.72;;
36497;SDS011;22513;51.222;6.480;2022-07-21T15:09:23;5.80;;;3.65;;
36497;SDS011;22513;51.222;6.480;2022-07-21T15:11:48;4.88;;;3.83;;
36497;SDS011;22513;51.222;6.480;2022-07-21T15:14:14;3.90;;;2.65;;
36497;SDS011;22513;51.222;6.480;2022-07-21T15:16:40;4.03;;;2.70;;